sensor_id;sensor_type;location;lat;lon;timestamp;P1;durP1;ratioP1;P2;durP2;ratioP2
81336;SDS011;70799;48.000;10.584;2024-01-10T00:00:18;32.80;;;11.05;;
81336;SDS011;70799;48.000;10.584;2024-01-10T00:02:54;32.50;;;11.90;;
81336;SDS011;70799;48.000;10.584;2024-01-10T00:05:30;34.67;;;11.55;;
81336;SDS011;70799;48.000;10.584;2024-01-10T00:08:06;30.15;;;11.10;;
81336;SDS011;70799;48.000;10.584;2024-01-10T00:10:42;33.78;;;11.32;;
81336;SDS011;70799;48.000;10.584;2024-01-10T00:13:18;33.67;;;11.02;;
81336;SDS011;70799;48.000;10.584;2024-01-10T00:15:53;33.47;;;12.18;;
81336;SDS011;70799;48.000;10.584;2024-01-10T00:18:33;31.65;;;12.73;;
81336;SDS011;70799;48.000;10.584;2024-01-10T00:21:10;34.10;;;11.23;;
81336;SDS011;70799;48.000;10.584;2024-01-10T00:26:22;30.27;;;10.23;;
81336;SDS011;70799;48.000;10.584;2024-01-10T00:28:58;30.35;;;11.50;;
81336;SDS011;70799;48.000;10.584;2024-01-10T00:31:36;32.40;;;11.95;;
81336;SDS011;70799;48.000;10.584;2024-01-10T00:34:12;34.90;;;11.93;;
81336;SDS011;70799;48.000;10.584;2024-01-10T00:36:48;36.00;;;12.77;;
81336;SDS011;70799;48.000;10.584;2024-01-10T00:39:24;40.40;;;12.60;;
81336;SDS011;70799;48.000;10.584;2024-01-10T00:42:01;39.13;;;12.57;;
81336;SDS011;70799;48.000;10.584;2024-01-10T00:44:37;32.78;;;12.77;;
81336;SDS011;70799;48.000;10.584;2024-01-10T00:47:13;36.55;;;14.13;;
81336;SDS011;70799;48.000;10.584;2024-01-10T00:49:49;36.67;;;12.63;;
81336;SDS011;70799;48.000;10.584;2024-01-10T00:52:25;41.00;;;12.52;;
81336;SDS011;70799;48.000;10.584;2024-01-10T00:55:01;38.47;;;13.05;;
81336;SDS011;70799;48.000;10.584;2024-01-10T00:57:38;35.58;;;13.18;;
81336;SDS011;70799;48.000;10.584;2024-01-10T01:00:14;34.25;;;12.57;;
81336;SDS011;70799;48.000;10.584;2024-01-10T01:02:53;33.17;;;11.57;;
81336;SDS011;70799;48.000;10.584;2024-01-10T01:05:29;38.42;;;13.05;;
81336;SDS011;70799;48.000;10.584;2024-01-10T01:08:05;37.88;;;13.00;;
81336;SDS011;70799;48.000;10.584;2024-01-10T01:10:41;40.08;;;14.07;;
81336;SDS011;70799;48.000;10.584;2024-01-10T01:13:17;40.53;;;13.95;;
81336;SDS011;70799;48.000;10.584;2024-01-10T01:15:53;37.53;;;12.63;;
81336;SDS011;70799;48.000;10.584;2024-01-10T01:18:29;32.40;;;11.68;;
81336;SDS011;70799;48.000;10.584;2024-01-10T01:21:05;33.65;;;12.10;;
81336;SDS011;70799;48.000;10.584;2024-01-10T01:23:41;37.45;;;13.13;;
81336;SDS011;70799;48.000;10.584;2024-01-10T01:26:17;46.05;;;14.60;;
81336;SDS011;70799;48.000;10.584;2024-01-10T01:28:54;39.20;;;13.05;;
81336;SDS011;70799;48.000;10.584;2024-01-10T01:31:30;36.78;;;12.68;;
81336;SDS011;70799;48.000;10.584;2024-01-10T01:34:06;37.00;;;12.55;;
81336;SDS011;70799;48.000;10.584;2024-01-10T01:36:42;39.30;;;13.65;;
81336;SDS011;70799;48.000;10.584;2024-01-10T01:39:18;36.35;;;14.85;;
81336;SDS011;70799;48.000;10.584;2024-01-10T01:41:55;38.83;;;12.80;;
81336;SDS011;70799;48.000;10.584;2024-01-10T01:44:33;37.22;;;12.80;;
81336;SDS011;70799;48.000;10.584;2024-01-10T01:47:09;41.97;;;13.77;;
81336;SDS011;70799;48.000;10.584;2024-01-10T01:49:45;37.70;;;13.90;;
81336;SDS011;70799;48.000;10.584;2024-01-10T01:52:21;40.60;;;14.07;;
81336;SDS011;70799;48.000;10.584;2024-01-10T01:54:57;40.88;;;13.40;;
81336;SDS011;70799;48.000;10.584;2024-01-10T01:57:35;38.22;;;12.43;;
81336;SDS011;70799;48.000;10.584;2024-01-10T02:00:12;42.88;;;13.93;;
81336;SDS011;70799;48.000;10.584;2024-01-10T02:02:49;40.90;;;14.60;;
81336;SDS011;70799;48.000;10.584;2024-01-10T02:08:02;38.88;;;13.52;;
81336;SDS011;70799;48.000;10.584;2024-01-10T02:10:38;39.08;;;13.35;;
81336;SDS011;70799;48.000;10.584;2024-01-10T02:13:14;36.58;;;12.85;;
81336;SDS011;70799;48.000;10.584;2024-01-10T02:15:51;44.03;;;14.55;;
81336;SDS011;70799;48.000;10.584;2024-01-10T02:18:27;40.97;;;12.32;;
81336;SDS011;70799;48.000;10.584;2024-01-10T02:21:03;43.45;;;12.80;;
81336;SDS011;70799;48.000;10.584;2024-01-10T02:23:39;43.60;;;12.85;;
81336;SDS011;70799;48.000;10.584;2024-01-10T02:26:15;39.83;;;12.70;;
81336;SDS011;70799;48.000;10.584;2024-01-10T02:28:51;37.45;;;12.43;;
81336;SDS011;70799;48.000;10.584;2024-01-10T02:31:27;35.83;;;12.15;;
81336;SDS011;70799;48.000;10.584;2024-01-10T02:34:04;41.83;;;12.90;;
81336;SDS011;70799;48.000;10.584;2024-01-10T02:39:16;36.17;;;11.68;;
81336;SDS011;70799;48.000;10.584;2024-01-10T02:41:52;32.00;;;11.00;;
81336;SDS011;70799;48.000;10.584;2024-01-10T02:44:28;38.20;;;13.68;;
81336;SDS011;70799;48.000;10.584;2024-01-10T02:47:05;43.85;;;14.45;;
81336;SDS011;70799;48.000;10.584;2024-01-10T02:49:41;43.22;;;13.85;;
81336;SDS011;70799;48.000;10.584;2024-01-10T02:52:17;40.35;;;13.70;;
81336;SDS011;70799;48.000;10.584;2024-01-10T02:57:29;39.00;;;13.23;;
81336;SDS011;70799;48.000;10.584;2024-01-10T03:00:05;44.80;;;14.32;;
81336;SDS011;70799;48.000;10.584;2024-01-10T03:02:43;39.50;;;13.90;;
81336;SDS011;70799;48.000;10.584;2024-01-10T03:05:19;39.60;;;14.15;;
81336;SDS011;70799;48.000;10.584;2024-01-10T03:07:54;43.30;;;15.32;;
81336;SDS011;70799;48.000;10.584;2024-01-10T03:10:32;40.92;;;14.80;;
81336;SDS011;70799;48.000;10.584;2024-01-10T03:13:08;41.03;;;15.13;;
81336;SDS011;70799;48.000;10.584;2024-01-10T03:15:44;37.55;;;13.35;;
81336;SDS011;70799;48.000;10.584;2024-01-10T03:18:20;39.58;;;13.57;;
81336;SDS011;70799;48.000;10.584;2024-01-10T03:20:57;41.08;;;14.30;;
81336;SDS011;70799;48.000;10.584;2024-01-10T03:23:33;41.50;;;14.65;;
81336;SDS011;70799;48.000;10.584;2024-01-10T03:26:10;37.50;;;13.65;;
81336;SDS011;70799;48.000;10.584;2024-01-10T03:28:46;42.88;;;14.10;;
81336;SDS011;70799;48.000;10.584;2024-01-10T03:31:22;35.45;;;13.32;;
81336;SDS011;70799;48.000;10.584;2024-01-10T03:33:58;42.17;;;14.75;;
81336;SDS011;70799;48.000;10.584;2024-01-10T03:36:38;40.50;;;14.40;;
81336;SDS011;70799;48.000;10.584;2024-01-10T03:39:14;42.20;;;15.23;;
81336;SDS011;70799;48.000;10.584;2024-01-10T03:41:50;42.92;;;16.15;;
81336;SDS011;70799;48.000;10.584;2024-01-10T03:44:26;43.80;;;15.75;;
81336;SDS011;70799;48.000;10.584;2024-01-10T03:47:02;51.90;;;16.90;;
81336;SDS011;70799;48.000;10.584;2024-01-10T03:49:38;44.95;;;14.23;;
81336;SDS011;70799;48.000;10.584;2024-01-10T03:52:14;46.05;;;15.35;;
81336;SDS011;70799;48.000;10.584;2024-01-10T03:54:51;40.00;;;15.23;;
81336;SDS011;70799;48.000;10.584;2024-01-10T03:57:27;46.88;;;15.52;;
81336;SDS011;70799;48.000;10.584;2024-01-10T04:00:03;40.30;;;13.70;;
81336;SDS011;70799;48.000;10.584;2024-01-10T04:02:40;34.25;;;12.60;;
81336;SDS011;70799;48.000;10.584;2024-01-10T04:05:16;39.22;;;13.88;;
81336;SDS011;70799;48.000;10.584;2024-01-10T04:07:53;40.67;;;13.90;;
81336;SDS011;70799;48.000;10.584;2024-01-10T04:10:29;44.67;;;14.88;;
81336;SDS011;70799;48.000;10.584;2024-01-10T04:13:05;42.22;;;14.18;;
81336;SDS011;70799;48.000;10.584;2024-01-10T04:15:41;42.83;;;14.85;;
81336;SDS011;70799;48.000;10.584;2024-01-10T04:18:16;38.80;;;14.27;;
81336;SDS011;70799;48.000;10.584;2024-01-10T04:20:53;42.85;;;14.00;;
81336;SDS011;70799;48.000;10.584;2024-01-10T04:23:29;39.08;;;14.65;;
81336;SDS011;70799;48.000;10.584;2024-01-10T04:26:06;42.20;;;13.98;;
81336;SDS011;70799;48.000;10.584;2024-01-10T04:28:42;44.70;;;15.57;;
81336;SDS011;70799;48.000;10.584;2024-01-10T04:31:18;41.13;;;15.90;;
81336;SDS011;70799;48.000;10.584;2024-01-10T04:33:54;41.92;;;13.60;;
81336;SDS011;70799;48.000;10.584;2024-01-10T04:36:30;42.88;;;15.80;;
81336;SDS011;70799;48.000;10.584;2024-01-10T04:39:06;42.78;;;13.48;;
81336;SDS011;70799;48.000;10.584;2024-01-10T04:41:42;41.05;;;14.50;;
81336;SDS011;70799;48.000;10.584;2024-01-10T04:44:18;37.90;;;13.48;;
81336;SDS011;70799;48.000;10.584;2024-01-10T04:46:54;45.78;;;15.20;;
81336;SDS011;70799;48.000;10.584;2024-01-10T04:49:30;42.75;;;14.73;;
81336;SDS011;70799;48.000;10.584;2024-01-10T04:52:06;37.88;;;15.07;;
81336;SDS011;70799;48.000;10.584;2024-01-10T04:54:42;42.35;;;15.00;;
81336;SDS011;70799;48.000;10.584;2024-01-10T04:57:18;34.83;;;13.25;;
81336;SDS011;70799;48.000;10.584;2024-01-10T04:59:54;38.22;;;14.23;;
81336;SDS011;70799;48.000;10.584;2024-01-10T05:02:30;38.33;;;13.50;;
81336;SDS011;70799;48.000;10.584;2024-01-10T05:05:06;43.22;;;14.65;;
81336;SDS011;70799;48.000;10.584;2024-01-10T05:07:43;41.53;;;14.73;;
81336;SDS011;70799;48.000;10.584;2024-01-10T05:10:19;40.58;;;14.35;;
81336;SDS011;70799;48.000;10.584;2024-01-10T05:12:55;41.40;;;15.10;;
81336;SDS011;70799;48.000;10.584;2024-01-10T05:15:32;39.15;;;13.57;;
81336;SDS011;70799;48.000;10.584;2024-01-10T05:18:08;45.75;;;14.15;;
81336;SDS011;70799;48.000;10.584;2024-01-10T05:20:45;42.92;;;14.90;;
81336;SDS011;70799;48.000;10.584;2024-01-10T05:23:22;38.33;;;14.38;;
81336;SDS011;70799;48.000;10.584;2024-01-10T05:25:58;39.72;;;14.50;;
81336;SDS011;70799;48.000;10.584;2024-01-10T05:28:34;41.78;;;14.30;;
81336;SDS011;70799;48.000;10.584;2024-01-10T05:31:10;46.00;;;15.60;;
81336;SDS011;70799;48.000;10.584;2024-01-10T05:33:46;46.95;;;15.85;;
81336;SDS011;70799;48.000;10.584;2024-01-10T05:36:22;37.22;;;14.52;;
81336;SDS011;70799;48.000;10.584;2024-01-10T05:38:58;40.22;;;15.65;;
81336;SDS011;70799;48.000;10.584;2024-01-10T05:41:34;41.53;;;14.32;;
81336;SDS011;70799;48.000;10.584;2024-01-10T05:44:13;41.17;;;14.18;;
81336;SDS011;70799;48.000;10.584;2024-01-10T05:46:49;44.20;;;15.75;;
81336;SDS011;70799;48.000;10.584;2024-01-10T05:49:26;43.28;;;15.30;;
81336;SDS011;70799;48.000;10.584;2024-01-10T05:52:02;45.33;;;15.88;;
81336;SDS011;70799;48.000;10.584;2024-01-10T05:54:38;43.10;;;14.85;;
81336;SDS011;70799;48.000;10.584;2024-01-10T05:57:14;39.22;;;15.43;;
81336;SDS011;70799;48.000;10.584;2024-01-10T05:59:50;42.45;;;13.70;;
81336;SDS011;70799;48.000;10.584;2024-01-10T06:02:28;44.78;;;16.42;;
81336;SDS011;70799;48.000;10.584;2024-01-10T06:05:08;44.00;;;14.65;;
81336;SDS011;70799;48.000;10.584;2024-01-10T06:07:45;40.00;;;14.80;;
81336;SDS011;70799;48.000;10.584;2024-01-10T06:10:21;41.92;;;14.45;;
81336;SDS011;70799;48.000;10.584;2024-01-10T06:12:57;35.13;;;12.88;;
81336;SDS011;70799;48.000;10.584;2024-01-10T06:15:34;42.35;;;14.55;;
81336;SDS011;70799;48.000;10.584;2024-01-10T06:18:10;43.20;;;14.05;;
81336;SDS011;70799;48.000;10.584;2024-01-10T06:20:46;39.88;;;14.40;;
81336;SDS011;70799;48.000;10.584;2024-01-10T06:23:22;39.80;;;14.43;;
81336;SDS011;70799;48.000;10.584;2024-01-10T06:25:58;40.15;;;14.55;;
81336;SDS011;70799;48.000;10.584;2024-01-10T06:28:34;40.08;;;14.63;;
81336;SDS011;70799;48.000;10.584;2024-01-10T06:31:11;38.03;;;14.57;;
81336;SDS011;70799;48.000;10.584;2024-01-10T06:37:06;44.15;;;15.27;;
81336;SDS011;70799;48.000;10.584;2024-01-10T06:39:42;42.13;;;14.02;;
81336;SDS011;70799;48.000;10.584;2024-01-10T06:42:18;42.97;;;13.65;;
81336;SDS011;70799;48.000;10.584;2024-01-10T06:44:54;39.13;;;13.98;;
81336;SDS011;70799;48.000;10.584;2024-01-10T06:47:30;39.28;;;14.55;;
81336;SDS011;70799;48.000;10.584;2024-01-10T06:50:06;43.30;;;14.30;;
81336;SDS011;70799;48.000;10.584;2024-01-10T06:52:43;37.13;;;15.10;;
81336;SDS011;70799;48.000;10.584;2024-01-10T06:55:20;36.88;;;14.02;;
81336;SDS011;70799;48.000;10.584;2024-01-10T06:57:56;40.42;;;14.85;;
81336;SDS011;70799;48.000;10.584;2024-01-10T07:00:33;37.10;;;13.98;;
81336;SDS011;70799;48.000;10.584;2024-01-10T07:03:10;38.63;;;14.38;;
81336;SDS011;70799;48.000;10.584;2024-01-10T07:05:46;39.55;;;14.02;;
81336;SDS011;70799;48.000;10.584;2024-01-10T07:08:25;42.03;;;13.68;;
81336;SDS011;70799;48.000;10.584;2024-01-10T07:11:03;38.50;;;14.32;;
81336;SDS011;70799;48.000;10.584;2024-01-10T07:13:40;41.08;;;15.35;;
81336;SDS011;70799;48.000;10.584;2024-01-10T07:16:16;40.28;;;15.27;;
81336;SDS011;70799;48.000;10.584;2024-01-10T07:18:52;40.00;;;15.30;;
81336;SDS011;70799;48.000;10.584;2024-01-10T07:21:28;42.45;;;14.73;;
81336;SDS011;70799;48.000;10.584;2024-01-10T07:24:04;34.67;;;14.43;;
81336;SDS011;70799;48.000;10.584;2024-01-10T07:26:40;46.80;;;17.25;;
81336;SDS011;70799;48.000;10.584;2024-01-10T07:29:16;45.70;;;17.05;;
81336;SDS011;70799;48.000;10.584;2024-01-10T07:31:53;44.92;;;18.33;;
81336;SDS011;70799;48.000;10.584;2024-01-10T07:34:29;37.65;;;15.15;;
81336;SDS011;70799;48.000;10.584;2024-01-10T07:37:05;40.03;;;17.15;;
81336;SDS011;70799;48.000;10.584;2024-01-10T07:39:43;75.10;;;32.58;;
81336;SDS011;70799;48.000;10.584;2024-01-10T07:42:18;63.17;;;26.13;;
81336;SDS011;70799;48.000;10.584;2024-01-10T07:44:54;49.63;;;18.58;;
81336;SDS011;70799;48.000;10.584;2024-01-10T07:47:35;68.30;;;28.73;;
81336;SDS011;70799;48.000;10.584;2024-01-10T07:50:14;44.33;;;16.40;;
81336;SDS011;70799;48.000;10.584;2024-01-10T07:52:51;44.28;;;15.70;;
81336;SDS011;70799;48.000;10.584;2024-01-10T07:55:27;46.95;;;17.65;;
81336;SDS011;70799;48.000;10.584;2024-01-10T07:58:04;45.70;;;15.00;;
81336;SDS011;70799;48.000;10.584;2024-01-10T08:00:40;43.15;;;15.00;;
81336;SDS011;70799;48.000;10.584;2024-01-10T08:03:17;38.42;;;13.27;;
81336;SDS011;70799;48.000;10.584;2024-01-10T08:05:53;42.33;;;14.52;;
81336;SDS011;70799;48.000;10.584;2024-01-10T08:08:33;41.13;;;13.93;;
81336;SDS011;70799;48.000;10.584;2024-01-10T08:11:09;37.17;;;14.23;;
81336;SDS011;70799;48.000;10.584;2024-01-10T08:13:45;39.13;;;13.75;;
81336;SDS011;70799;48.000;10.584;2024-01-10T08:16:23;39.72;;;14.52;;
81336;SDS011;70799;48.000;10.584;2024-01-10T08:18:59;39.30;;;14.68;;
81336;SDS011;70799;48.000;10.584;2024-01-10T08:21:35;43.75;;;15.70;;
81336;SDS011;70799;48.000;10.584;2024-01-10T08:24:12;38.33;;;13.93;;
81336;SDS011;70799;48.000;10.584;2024-01-10T08:26:48;38.40;;;13.63;;
81336;SDS011;70799;48.000;10.584;2024-01-10T08:29:24;36.22;;;14.18;;
81336;SDS011;70799;48.000;10.584;2024-01-10T08:32:03;49.97;;;15.20;;
81336;SDS011;70799;48.000;10.584;2024-01-10T08:34:39;37.67;;;14.32;;
81336;SDS011;70799;48.000;10.584;2024-01-10T08:37:17;36.08;;;13.40;;
81336;SDS011;70799;48.000;10.584;2024-01-10T08:39:53;38.92;;;13.35;;
81336;SDS011;70799;48.000;10.584;2024-01-10T08:42:29;40.78;;;13.13;;
81336;SDS011;70799;48.000;10.584;2024-01-10T08:45:05;38.13;;;13.98;;
81336;SDS011;70799;48.000;10.584;2024-01-10T08:47:43;32.75;;;12.80;;
81336;SDS011;70799;48.000;10.584;2024-01-10T08:50:19;37.13;;;13.52;;
81336;SDS011;70799;48.000;10.584;2024-01-10T08:52:56;38.47;;;13.25;;
81336;SDS011;70799;48.000;10.584;2024-01-10T08:55:35;38.90;;;14.18;;
81336;SDS011;70799;48.000;10.584;2024-01-10T08:58:11;37.92;;;14.65;;
81336;SDS011;70799;48.000;10.584;2024-01-10T09:00:47;39.83;;;14.15;;
81336;SDS011;70799;48.000;10.584;2024-01-10T09:03:24;47.72;;;15.60;;
81336;SDS011;70799;48.000;10.584;2024-01-10T09:06:00;38.75;;;15.07;;
81336;SDS011;70799;48.000;10.584;2024-01-10T09:08:42;38.65;;;13.40;;
81336;SDS011;70799;48.000;10.584;2024-01-10T09:11:18;44.55;;;14.93;;
81336;SDS011;70799;48.000;10.584;2024-01-10T09:13:55;39.45;;;13.85;;
81336;SDS011;70799;48.000;10.584;2024-01-10T09:19:08;33.50;;;13.68;;
81336;SDS011;70799;48.000;10.584;2024-01-10T09:21:47;39.65;;;14.57;;
81336;SDS011;70799;48.000;10.584;2024-01-10T09:24:24;48.10;;;16.40;;
81336;SDS011;70799;48.000;10.584;2024-01-10T09:27:01;42.80;;;14.25;;
81336;SDS011;70799;48.000;10.584;2024-01-10T09:29:37;40.10;;;15.45;;
81336;SDS011;70799;48.000;10.584;2024-01-10T09:32:13;38.45;;;15.30;;
81336;SDS011;70799;48.000;10.584;2024-01-10T09:34:49;35.28;;;13.95;;
81336;SDS011;70799;48.000;10.584;2024-01-10T09:37:25;43.03;;;14.57;;
81336;SDS011;70799;48.000;10.584;2024-01-10T09:40:03;40.65;;;15.23;;
81336;SDS011;70799;48.000;10.584;2024-01-10T09:42:40;38.28;;;13.85;;
81336;SDS011;70799;48.000;10.584;2024-01-10T09:45:16;40.08;;;15.32;;
81336;SDS011;70799;48.000;10.584;2024-01-10T09:47:54;36.10;;;14.30;;
81336;SDS011;70799;48.000;10.584;2024-01-10T09:50:34;42.85;;;16.00;;
81336;SDS011;70799;48.000;10.584;2024-01-10T09:53:11;41.90;;;14.48;;
81336;SDS011;70799;48.000;10.584;2024-01-10T09:55:59;37.97;;;14.52;;
81336;SDS011;70799;48.000;10.584;2024-01-10T09:58:35;41.13;;;16.55;;
81336;SDS011;70799;48.000;10.584;2024-01-10T10:01:12;36.13;;;13.98;;
81336;SDS011;70799;48.000;10.584;2024-01-10T10:03:49;36.03;;;15.30;;
81336;SDS011;70799;48.000;10.584;2024-01-10T10:06:25;42.17;;;15.23;;
81336;SDS011;70799;48.000;10.584;2024-01-10T10:09:02;39.88;;;14.52;;
81336;SDS011;70799;48.000;10.584;2024-01-10T10:14:15;36.25;;;14.80;;
81336;SDS011;70799;48.000;10.584;2024-01-10T10:16:52;36.47;;;13.75;;
81336;SDS011;70799;48.000;10.584;2024-01-10T10:19:29;34.17;;;13.30;;
81336;SDS011;70799;48.000;10.584;2024-01-10T10:22:12;40.20;;;14.90;;
81336;SDS011;70799;48.000;10.584;2024-01-10T10:24:48;38.25;;;13.10;;
81336;SDS011;70799;48.000;10.584;2024-01-10T10:27:25;36.22;;;13.95;;
81336;SDS011;70799;48.000;10.584;2024-01-10T10:30:02;40.40;;;14.98;;
81336;SDS011;70799;48.000;10.584;2024-01-10T10:32:41;35.05;;;13.05;;
81336;SDS011;70799;48.000;10.584;2024-01-10T10:35:18;40.13;;;16.65;;
81336;SDS011;70799;48.000;10.584;2024-01-10T10:38:09;36.60;;;13.73;;
81336;SDS011;70799;48.000;10.584;2024-01-10T10:40:45;41.15;;;16.02;;
81336;SDS011;70799;48.000;10.584;2024-01-10T10:43:21;40.95;;;14.43;;
81336;SDS011;70799;48.000;10.584;2024-01-10T10:45:58;45.33;;;17.33;;
81336;SDS011;70799;48.000;10.584;2024-01-10T10:51:11;37.65;;;14.93;;
81336;SDS011;70799;48.000;10.584;2024-01-10T10:53:50;41.10;;;15.90;;
81336;SDS011;70799;48.000;10.584;2024-01-10T10:56:29;42.90;;;15.65;;
81336;SDS011;70799;48.000;10.584;2024-01-10T10:59:07;38.03;;;15.70;;
81336;SDS011;70799;48.000;10.584;2024-01-10T11:01:44;39.72;;;15.95;;
81336;SDS011;70799;48.000;10.584;2024-01-10T11:04:20;42.47;;;15.50;;
81336;SDS011;70799;48.000;10.584;2024-01-10T11:06:57;43.55;;;17.27;;
81336;SDS011;70799;48.000;10.584;2024-01-10T11:09:34;39.67;;;15.95;;
81336;SDS011;70799;48.000;10.584;2024-01-10T11:15:47;38.58;;;16.13;;
81336;SDS011;70799;48.000;10.584;2024-01-10T11:24:25;42.53;;;15.65;;
81336;SDS011;70799;48.000;10.584;2024-01-10T11:29:46;39.33;;;15.32;;
81336;SDS011;70799;48.000;10.584;2024-01-10T11:34:59;44.83;;;16.02;;
81336;SDS011;70799;48.000;10.584;2024-01-10T11:37:43;43.25;;;15.65;;
81336;SDS011;70799;48.000;10.584;2024-01-10T11:40:45;40.50;;;14.93;;
81336;SDS011;70799;48.000;10.584;2024-01-10T11:43:22;40.80;;;16.63;;
81336;SDS011;70799;48.000;10.584;2024-01-10T11:45:58;46.70;;;16.52;;
81336;SDS011;70799;48.000;10.584;2024-01-10T11:48:36;38.28;;;16.42;;
81336;SDS011;70799;48.000;10.584;2024-01-10T11:51:14;45.13;;;15.88;;
81336;SDS011;70799;48.000;10.584;2024-01-10T11:53:50;42.08;;;17.15;;
81336;SDS011;70799;48.000;10.584;2024-01-10T11:56:26;44.15;;;16.63;;
81336;SDS011;70799;48.000;10.584;2024-01-10T11:59:15;41.38;;;16.42;;
81336;SDS011;70799;48.000;10.584;2024-01-10T12:01:53;54.90;;;18.77;;
81336;SDS011;70799;48.000;10.584;2024-01-10T12:04:31;44.65;;;17.42;;
81336;SDS011;70799;48.000;10.584;2024-01-10T12:07:19;41.47;;;17.52;;
81336;SDS011;70799;48.000;10.584;2024-01-10T12:09:56;45.08;;;16.70;;
81336;SDS011;70799;48.000;10.584;2024-01-10T12:12:35;46.63;;;16.20;;
81336;SDS011;70799;48.000;10.584;2024-01-10T12:15:11;48.50;;;17.08;;
81336;SDS011;70799;48.000;10.584;2024-01-10T12:17:48;40.58;;;16.23;;
81336;SDS011;70799;48.000;10.584;2024-01-10T12:20:24;40.85;;;15.18;;
81336;SDS011;70799;48.000;10.584;2024-01-10T12:23:02;42.67;;;16.17;;
81336;SDS011;70799;48.000;10.584;2024-01-10T12:25:38;37.25;;;14.70;;
81336;SDS011;70799;48.000;10.584;2024-01-10T12:28:17;42.35;;;16.15;;
81336;SDS011;70799;48.000;10.584;2024-01-10T12:30:53;44.03;;;15.82;;
81336;SDS011;70799;48.000;10.584;2024-01-10T12:33:32;39.00;;;16.05;;
81336;SDS011;70799;48.000;10.584;2024-01-10T12:36:12;40.05;;;16.10;;
81336;SDS011;70799;48.000;10.584;2024-01-10T12:38:48;34.30;;;15.30;;
81336;SDS011;70799;48.000;10.584;2024-01-10T12:41:24;41.97;;;15.20;;
81336;SDS011;70799;48.000;10.584;2024-01-10T12:44:03;35.15;;;14.07;;
81336;SDS011;70799;48.000;10.584;2024-01-10T12:46:49;42.60;;;17.90;;
81336;SDS011;70799;48.000;10.584;2024-01-10T12:52:05;32.83;;;14.45;;
81336;SDS011;70799;48.000;10.584;2024-01-10T12:54:49;35.80;;;13.95;;
81336;SDS011;70799;48.000;10.584;2024-01-10T12:57:26;38.00;;;16.08;;
81336;SDS011;70799;48.000;10.584;2024-01-10T13:00:03;47.60;;;17.65;;
81336;SDS011;70799;48.000;10.584;2024-01-10T13:02:40;37.15;;;15.15;;
81336;SDS011;70799;48.000;10.584;2024-01-10T13:05:16;36.65;;;15.77;;
81336;SDS011;70799;48.000;10.584;2024-01-10T13:07:52;34.00;;;13.70;;
81336;SDS011;70799;48.000;10.584;2024-01-10T13:10:29;36.85;;;14.32;;
81336;SDS011;70799;48.000;10.584;2024-01-10T13:13:05;38.70;;;15.20;;
81336;SDS011;70799;48.000;10.584;2024-01-10T13:15:41;35.60;;;14.68;;
81336;SDS011;70799;48.000;10.584;2024-01-10T13:18:17;37.15;;;14.88;;
81336;SDS011;70799;48.000;10.584;2024-01-10T13:20:54;38.28;;;15.27;;
81336;SDS011;70799;48.000;10.584;2024-01-10T13:23:30;31.85;;;13.63;;
81336;SDS011;70799;48.000;10.584;2024-01-10T13:28:43;35.95;;;14.35;;
81336;SDS011;70799;48.000;10.584;2024-01-10T13:31:19;35.90;;;14.98;;
81336;SDS011;70799;48.000;10.584;2024-01-10T13:33:55;33.58;;;14.05;;
81336;SDS011;70799;48.000;10.584;2024-01-10T13:39:08;33.72;;;13.65;;
81336;SDS011;70799;48.000;10.584;2024-01-10T13:41:47;36.40;;;15.05;;
81336;SDS011;70799;48.000;10.584;2024-01-10T13:44:23;37.47;;;15.10;;
81336;SDS011;70799;48.000;10.584;2024-01-10T13:46:59;38.33;;;14.60;;
81336;SDS011;70799;48.000;10.584;2024-01-10T13:49:36;40.97;;;15.48;;
81336;SDS011;70799;48.000;10.584;2024-01-10T13:52:13;37.17;;;13.32;;
81336;SDS011;70799;48.000;10.584;2024-01-10T13:54:49;35.22;;;15.25;;
81336;SDS011;70799;48.000;10.584;2024-01-10T13:57:25;38.17;;;14.57;;
81336;SDS011;70799;48.000;10.584;2024-01-10T14:00:05;38.80;;;14.63;;
81336;SDS011;70799;48.000;10.584;2024-01-10T14:02:44;37.58;;;14.95;;
81336;SDS011;70799;48.000;10.584;2024-01-10T14:05:20;41.75;;;16.80;;
81336;SDS011;70799;48.000;10.584;2024-01-10T14:07:57;43.13;;;16.85;;
81336;SDS011;70799;48.000;10.584;2024-01-10T14:10:34;41.30;;;16.38;;
81336;SDS011;70799;48.000;10.584;2024-01-10T14:13:11;40.53;;;14.85;;
81336;SDS011;70799;48.000;10.584;2024-01-10T14:15:47;36.30;;;14.88;;
81336;SDS011;70799;48.000;10.584;2024-01-10T14:18:23;43.33;;;16.13;;
81336;SDS011;70799;48.000;10.584;2024-01-10T14:20:59;39.13;;;17.02;;
81336;SDS011;70799;48.000;10.584;2024-01-10T14:23:37;43.40;;;16.10;;
81336;SDS011;70799;48.000;10.584;2024-01-10T14:26:14;42.55;;;17.75;;
81336;SDS011;70799;48.000;10.584;2024-01-10T14:28:50;39.30;;;15.65;;
81336;SDS011;70799;48.000;10.584;2024-01-10T14:31:28;41.58;;;16.77;;
81336;SDS011;70799;48.000;10.584;2024-01-10T14:34:24;44.67;;;16.13;;
81336;SDS011;70799;48.000;10.584;2024-01-10T14:37:00;43.50;;;16.33;;
81336;SDS011;70799;48.000;10.584;2024-01-10T14:42:13;44.67;;;15.50;;
81336;SDS011;70799;48.000;10.584;2024-01-10T14:44:49;42.15;;;16.83;;
81336;SDS011;70799;48.000;10.584;2024-01-10T14:47:25;41.72;;;17.85;;
81336;SDS011;70799;48.000;10.584;2024-01-10T14:50:02;44.05;;;17.75;;
81336;SDS011;70799;48.000;10.584;2024-01-10T14:52:38;41.13;;;15.57;;
81336;SDS011;70799;48.000;10.584;2024-01-10T14:55:14;43.55;;;17.65;;
81336;SDS011;70799;48.000;10.584;2024-01-10T14:57:50;42.53;;;17.17;;
81336;SDS011;70799;48.000;10.584;2024-01-10T15:00:26;44.38;;;16.35;;
81336;SDS011;70799;48.000;10.584;2024-01-10T15:03:02;42.28;;;17.17;;
81336;SDS011;70799;48.000;10.584;2024-01-10T15:05:54;47.90;;;17.33;;
81336;SDS011;70799;48.000;10.584;2024-01-10T15:08:32;45.95;;;18.33;;
81336;SDS011;70799;48.000;10.584;2024-01-10T15:11:08;42.03;;;15.73;;
81336;SDS011;70799;48.000;10.584;2024-01-10T15:13:45;45.88;;;16.42;;
81336;SDS011;70799;48.000;10.584;2024-01-10T15:16:21;42.15;;;16.80;;
81336;SDS011;70799;48.000;10.584;2024-01-10T15:18:57;43.42;;;17.02;;
81336;SDS011;70799;48.000;10.584;2024-01-10T15:21:35;45.33;;;17.55;;
81336;SDS011;70799;48.000;10.584;2024-01-10T15:24:11;45.40;;;17.83;;
81336;SDS011;70799;48.000;10.584;2024-01-10T15:26:51;50.67;;;19.30;;
81336;SDS011;70799;48.000;10.584;2024-01-10T15:29:28;46.47;;;18.70;;
81336;SDS011;70799;48.000;10.584;2024-01-10T15:32:04;45.45;;;17.83;;
81336;SDS011;70799;48.000;10.584;2024-01-10T15:34:41;43.83;;;18.42;;
81336;SDS011;70799;48.000;10.584;2024-01-10T15:37:17;46.80;;;18.17;;
81336;SDS011;70799;48.000;10.584;2024-01-10T15:39:53;44.50;;;17.38;;
81336;SDS011;70799;48.000;10.584;2024-01-10T15:42:29;48.72;;;17.27;;
81336;SDS011;70799;48.000;10.584;2024-01-10T15:45:05;50.75;;;18.85;;
81336;SDS011;70799;48.000;10.584;2024-01-10T15:47:42;50.95;;;17.13;;
81336;SDS011;70799;48.000;10.584;2024-01-10T15:50:19;47.00;;;17.13;;